sensor_id;sensor_type;location;lat;lon;timestamp;temperature;humidity
10903;DHT22;5504;47.312;11.060;2022-07-25T00:00:00;20.50;93.80
10903;DHT22;5504;47.312;11.060;2022-07-25T00:02:26;20.50;93.70
10903;DHT22;5504;47.312;11.060;2022-07-25T00:04:52;20.50;93.80
10903;DHT22;5504;47.312;11.060;2022-07-25T00:07:17;20.40;94.30
10903;DHT22;5504;47.312;11.060;2022-07-25T00:09:43;20.30;93.90
10903;DHT22;5504;47.312;11.060;2022-07-25T00:12:09;20.30;94.10
10903;DHT22;5504;47.312;11.060;2022-07-25T00:14:35;20.30;94.00
10903;DHT22;5504;47.312;11.060;2022-07-25T00:17:00;20.20;94.00
10903;DHT22;5504;47.312;11.060;2022-07-25T00:19:26;20.20;94.00
10903;DHT22;5504;47.312;11.060;2022-07-25T00:21:52;20.10;93.90
10903;DHT22;5504;47.312;11.060;2022-07-25T00:24:18;20.20;94.20
10903;DHT22;5504;47.312;11.060;2022-07-25T00:26:43;20.10;94.20
10903;DHT22;5504;47.312;11.060;2022-07-25T00:29:09;20.10;94.40
10903;DHT22;5504;47.312;11.060;2022-07-25T00:31:35;20.20;94.40
10903;DHT22;5504;47.312;11.060;2022-07-25T00:34:01;20.20;94.40
10903;DHT22;5504;47.312;11.060;2022-07-25T00:36:26;20.20;94.60
10903;DHT22;5504;47.312;11.060;2022-07-25T00:38:52;20.10;94.40
10903;DHT22;5504;47.312;11.060;2022-07-25T00:41:18;20.10;94.60
10903;DHT22;5504;47.312;11.060;2022-07-25T00:43:44;20.10;94.50
10903;DHT22;5504;47.312;11.060;2022-07-25T00:46:14;20.10;94.70
10903;DHT22;5504;47.312;11.060;2022-07-25T00:48:40;20.10;94.40
10903;DHT22;5504;47.312;11.060;2022-07-25T00:51:07;20.10;94.50
10903;DHT22;5504;47.312;11.060;2022-07-25T00:53:34;20.10;94.50
10903;DHT22;5504;47.312;11.060;2022-07-25T00:56:00;20.10;94.80
10903;DHT22;5504;47.312;11.060;2022-07-25T00:58:26;20.00;94.70
10903;DHT22;5504;47.312;11.060;2022-07-25T01:00:52;20.00;94.70
10903;DHT22;5504;47.312;11.060;2022-07-25T01:03:17;20.00;94.60
10903;DHT22;5504;47.312;11.060;2022-07-25T01:05:43;20.00;94.70
10903;DHT22;5504;47.312;11.060;2022-07-25T01:08:09;19.90;94.80
10903;DHT22;5504;47.312;11.060;2022-07-25T01:10:35;20.00;94.70
10903;DHT22;5504;47.312;11.060;2022-07-25T01:13:01;20.00;94.90
10903;DHT22;5504;47.312;11.060;2022-07-25T01:15:27;20.00;94.80
10903;DHT22;5504;47.312;11.060;2022-07-25T01:17:53;19.90;95.00
10903;DHT22;5504;47.312;11.060;2022-07-25T01:20:24;19.90;95.20
10903;DHT22;5504;47.312;11.060;2022-07-25T01:22:51;19.80;94.90
10903;DHT22;5504;47.312;11.060;2022-07-25T01:25:17;19.80;95.20
10903;DHT22;5504;47.312;11.060;2022-07-25T01:27:44;19.70;95.30
10903;DHT22;5504;47.312;11.060;2022-07-25T01:30:12;19.70;95.30
10903;DHT22;5504;47.312;11.060;2022-07-25T01:32:39;19.80;95.30
10903;DHT22;5504;47.312;11.060;2022-07-25T01:35:06;19.70;95.30
10903;DHT22;5504;47.312;11.060;2022-07-25T01:37:32;19.70;95.30
10903;DHT22;5504;47.312;11.060;2022-07-25T01:39:57;19.70;95.40
10903;DHT22;5504;47.312;11.060;2022-07-25T01:42:23;19.70;95.20
10903;DHT22;5504;47.312;11.060;2022-07-25T01:44:49;19.70;95.40
10903;DHT22;5504;47.312;11.060;2022-07-25T01:47:15;19.70;95.50
10903;DHT22;5504;47.312;11.060;2022-07-25T01:49:42;19.50;95.60
10903;DHT22;5504;47.312;11.060;2022-07-25T01:52:08;19.40;95.90
10903;DHT22;5504;47.312;11.060;2022-07-25T01:54:34;19.50;95.90
10903;DHT22;5504;47.312;11.060;2022-07-25T01:57:00;19.40;95.80
10903;DHT22;5504;47.312;11.060;2022-07-25T01:59:25;19.40;96.10
10903;DHT22;5504;47.312;11.060;2022-07-25T02:01:51;19.50;96.00
10903;DHT22;5504;47.312;11.060;2022-07-25T02:04:17;19.50;95.90
10903;DHT22;5504;47.312;11.060;2022-07-25T02:06:42;19.60;96.20
10903;DHT22;5504;47.312;11.060;2022-07-25T02:09:08;19.50;95.90
10903;DHT22;5504;47.312;11.060;2022-07-25T02:11:34;19.50;96.00
10903;DHT22;5504;47.312;11.060;2022-07-25T02:14:01;19.50;96.10
10903;DHT22;5504;47.312;11.060;2022-07-25T02:16:27;19.40;96.30
10903;DHT22;5504;47.312;11.060;2022-07-25T02:18:53;19.40;96.10
10903;DHT22;5504;47.312;11.060;2022-07-25T02:21:19;19.40;96.10
10903;DHT22;5504;47.312;11.060;2022-07-25T02:23:45;19.40;96.20
10903;DHT22;5504;47.312;11.060;2022-07-25T02:26:12;19.40;96.10
10903;DHT22;5504;47.312;11.060;2022-07-25T02:28:38;19.50;96.30
10903;DHT22;5504;47.312;11.060;2022-07-25T02:31:04;19.40;96.20
10903;DHT22;5504;47.312;11.060;2022-07-25T02:33:30;19.50;96.10
10903;DHT22;5504;47.312;11.060;2022-07-25T02:35:56;19.50;96.10
10903;DHT22;5504;47.312;11.060;2022-07-25T02:38:21;19.50;96.10
10903;DHT22;5504;47.312;11.060;2022-07-25T02:40:48;19.50;96.10
10903;DHT22;5504;47.312;11.060;2022-07-25T02:43:15;19.50;96.00
10903;DHT22;5504;47.312;11.060;2022-07-25T02:45:41;19.50;96.00
10903;DHT22;5504;47.312;11.060;2022-07-25T02:48:07;19.50;96.20
10903;DHT22;5504;47.312;11.060;2022-07-25T02:50:34;19.40;96.10
10903;DHT22;5504;47.312;11.060;2022-07-25T02:53:00;19.30;96.20
10903;DHT22;5504;47.312;11.060;2022-07-25T02:55:26;19.30;96.30
10903;DHT22;5504;47.312;11.060;2022-07-25T02:57:52;19.30;96.30
10903;DHT22;5504;47.312;11.060;2022-07-25T03:00:18;19.30;96.10
10903;DHT22;5504;47.312;11.060;2022-07-25T03:02:44;19.30;96.10
10903;DHT22;5504;47.312;11.060;2022-07-25T03:05:12;19.30;96.20
10903;DHT22;5504;47.312;11.060;2022-07-25T03:07:39;19.30;96.40
10903;DHT22;5504;47.312;11.060;2022-07-25T03:10:06;19.30;96.30
10903;DHT22;5504;47.312;11.060;2022-07-25T03:12:32;19.30;96.20
10903;DHT22;5504;47.312;11.060;2022-07-25T03:15:02;19.30;96.30
10903;DHT22;5504;47.312;11.060;2022-07-25T03:17:28;19.20;96.40
10903;DHT22;5504;47.312;11.060;2022-07-25T03:19:54;19.10;96.40
10903;DHT22;5504;47.312;11.060;2022-07-25T03:22:21;19.10;96.50
10903;DHT22;5504;47.312;11.060;2022-07-25T03:24:47;19.00;96.60
10903;DHT22;5504;47.312;11.060;2022-07-25T03:27:13;19.10;96.80
10903;DHT22;5504;47.312;11.060;2022-07-25T03:29:39;19.10;96.70
10903;DHT22;5504;47.312;11.060;2022-07-25T03:32:06;19.10;96.70
10903;DHT22;5504;47.312;11.060;2022-07-25T03:34:32;19.10;96.80
10903;DHT22;5504;47.312;11.060;2022-07-25T03:36:58;19.20;96.40
10903;DHT22;5504;47.312;11.060;2022-07-25T03:39:25;19.20;96.30
10903;DHT22;5504;47.312;11.060;2022-07-25T03:41:51;19.20;96.40
10903;DHT22;5504;47.312;11.060;2022-07-25T03:44:18;19.20;96.60
10903;DHT22;5504;47.312;11.060;2022-07-25T03:46:44;19.20;96.50
10903;DHT22;5504;47.312;11.060;2022-07-25T03:49:09;19.20;96.60
10903;DHT22;5504;47.312;11.060;2022-07-25T03:51:36;19.20;96.50
10903;DHT22;5504;47.312;11.060;2022-07-25T03:54:02;19.20;96.50
10903;DHT22;5504;47.312;11.060;2022-07-25T03:56:39;19.10;96.50
10903;DHT22;5504;47.312;11.060;2022-07-25T03:59:05;19.00;96.80
10903;DHT22;5504;47.312;11.060;2022-07-25T04:01:32;18.80;97.00
10903;DHT22;5504;47.312;11.060;2022-07-25T04:03:58;18.80;97.30
10903;DHT22;5504;47.312;11.060;2022-07-25T04:06:24;18.90;97.40
10903;DHT22;5504;47.312;11.060;2022-07-25T04:08:50;18.90;97.30
10903;DHT22;5504;47.312;11.060;2022-07-25T04:11:17;18.90;97.40
10903;DHT22;5504;47.312;11.060;2022-07-25T04:13:43;18.90;97.30
10903;DHT22;5504;47.312;11.060;2022-07-25T04:16:08;18.90;97.20
10903;DHT22;5504;47.312;11.060;2022-07-25T04:18:35;19.00;97.30
10903;DHT22;5504;47.312;11.060;2022-07-25T04:21:02;19.00;97.10
10903;DHT22;5504;47.312;11.060;2022-07-25T04:23:28;19.10;96.80
10903;DHT22;5504;47.312;11.060;2022-07-25T04:25:55;19.10;96.90
10903;DHT22;5504;47.312;11.060;2022-07-25T04:28:21;19.00;97.20
10903;DHT22;5504;47.312;11.060;2022-07-25T04:30:46;19.00;97.40
10903;DHT22;5504;47.312;11.060;2022-07-25T04:33:13;19.10;97.40
10903;DHT22;5504;47.312;11.060;2022-07-25T04:35:39;19.20;97.40
10903;DHT22;5504;47.312;11.060;2022-07-25T04:38:05;19.20;97.40
10903;DHT22;5504;47.312;11.060;2022-07-25T04:40:30;19.10;97.30
10903;DHT22;5504;47.312;11.060;2022-07-25T04:42:56;19.10;97.50
10903;DHT22;5504;47.312;11.060;2022-07-25T04:45:22;19.10;97.90
10903;DHT22;5504;47.312;11.060;2022-07-25T04:47:48;19.20;97.80
10903;DHT22;5504;47.312;11.060;2022-07-25T04:50:15;19.10;97.60
10903;DHT22;5504;47.312;11.060;2022-07-25T04:52:41;19.20;97.90
10903;DHT22;5504;47.312;11.060;2022-07-25T04:55:07;19.30;97.90
10903;DHT22;5504;47.312;11.060;2022-07-25T04:57:33;19.40;98.00
10903;DHT22;5504;47.312;11.060;2022-07-25T04:59:59;19.40;97.70
10903;DHT22;5504;47.312;11.060;2022-07-25T05:02:25;19.50;97.50
10903;DHT22;5504;47.312;11.060;2022-07-25T05:04:51;19.60;97.40
10903;DHT22;5504;47.312;11.060;2022-07-25T05:07:17;19.70;97.20
10903;DHT22;5504;47.312;11.060;2022-07-25T05:09:43;19.80;96.90
10903;DHT22;5504;47.312;11.060;2022-07-25T05:12:08;19.70;97.10
10903;DHT22;5504;47.312;11.060;2022-07-25T05:14:34;19.90;96.70
10903;DHT22;5504;47.312;11.060;2022-07-25T05:17:00;20.10;96.60
10903;DHT22;5504;47.312;11.060;2022-07-25T05:19:26;20.20;96.60
10903;DHT22;5504;47.312;11.060;2022-07-25T05:21:51;20.30;96.20
10903;DHT22;5504;47.312;11.060;2022-07-25T05:24:17;20.50;96.10
10903;DHT22;5504;47.312;11.060;2022-07-25T05:26:43;20.60;96.10
10903;DHT22;5504;47.312;11.060;2022-07-25T05:29:09;20.70;96.10
10903;DHT22;5504;47.312;11.060;2022-07-25T05:31:35;20.80;95.80
10903;DHT22;5504;47.312;11.060;2022-07-25T05:34:01;20.80;95.40
10903;DHT22;5504;47.312;11.060;2022-07-25T05:36:27;21.10;95.10
10903;DHT22;5504;47.312;11.060;2022-07-25T05:38:53;21.10;94.90
10903;DHT22;5504;47.312;11.060;2022-07-25T05:41:19;21.30;95.00
10903;DHT22;5504;47.312;11.060;2022-07-25T05:43:45;21.50;94.80
10903;DHT22;5504;47.312;11.060;2022-07-25T05:46:13;21.70;94.40
10903;DHT22;5504;47.312;11.060;2022-07-25T05:48:40;22.00;94.20
10903;DHT22;5504;47.312;11.060;2022-07-25T05:51:06;22.00;93.40
10903;DHT22;5504;47.312;11.060;2022-07-25T05:53:32;21.80;93.40
10903;DHT22;5504;47.312;11.060;2022-07-25T05:55:58;22.10;93.40
10903;DHT22;5504;47.312;11.060;2022-07-25T05:58:23;22.30;92.40
10903;DHT22;5504;47.312;11.060;2022-07-25T06:00:49;22.60;92.50
10903;DHT22;5504;47.312;11.060;2022-07-25T06:03:16;22.90;92.30
10903;DHT22;5504;47.312;11.060;2022-07-25T06:05:43;23.20;92.30
10903;DHT22;5504;47.312;11.060;2022-07-25T06:08:09;23.50;91.80
10903;DHT22;5504;47.312;11.060;2022-07-25T06:10:35;23.00;90.20
10903;DHT22;5504;47.312;11.060;2022-07-25T06:13:01;23.10;91.90
10903;DHT22;5504;47.312;11.060;2022-07-25T06:15:26;23.70;91.00
10903;DHT22;5504;47.312;11.060;2022-07-25T06:17:52;24.10;90.50
10903;DHT22;5504;47.312;11.060;2022-07-25T06:20:18;24.60;90.00
10903;DHT22;5504;47.312;11.060;2022-07-25T06:22:43;24.80;88.10
10903;DHT22;5504;47.312;11.060;2022-07-25T06:25:09;25.20;89.90
10903;DHT22;5504;47.312;11.060;2022-07-25T06:27:36;25.30;87.30
10903;DHT22;5504;47.312;11.060;2022-07-25T06:30:05;25.40;85.60
10903;DHT22;5504;47.312;11.060;2022-07-25T06:32:31;25.90;86.40
10903;DHT22;5504;47.312;11.060;2022-07-25T06:34:56;25.60;83.90
10903;DHT22;5504;47.312;11.060;2022-07-25T06:37:22;25.60;83.00
10903;DHT22;5504;47.312;11.060;2022-07-25T06:39:48;25.70;84.40
10903;DHT22;5504;47.312;11.060;2022-07-25T06:42:13;26.00;83.20
10903;DHT22;5504;47.312;11.060;2022-07-25T06:44:39;26.20;84.10
10903;DHT22;5504;47.312;11.060;2022-07-25T06:47:05;26.60;83.10
10903;DHT22;5504;47.312;11.060;2022-07-25T06:49:34;26.70;80.70
10903;DHT22;5504;47.312;11.060;2022-07-25T06:52:00;26.30;79.70
10903;DHT22;5504;47.312;11.060;2022-07-25T06:54:26;26.70;83.00
10903;DHT22;5504;47.312;11.060;2022-07-25T06:56:51;27.30;80.90
10903;DHT22;5504;47.312;11.060;2022-07-25T06:59:17;27.70;79.80
10903;DHT22;5504;47.312;11.060;2022-07-25T07:01:43;28.10;81.60
10903;DHT22;5504;47.312;11.060;2022-07-25T07:04:08;28.10;77.90
10903;DHT22;5504;47.312;11.060;2022-07-25T07:06:34;28.40;76.80
10903;DHT22;5504;47.312;11.060;2022-07-25T07:09:02;28.50;73.60
10903;DHT22;5504;47.312;11.060;2022-07-25T07:11:27;28.30;75.00
10903;DHT22;5504;47.312;11.060;2022-07-25T07:13:53;28.60;76.60
10903;DHT22;5504;47.312;11.060;2022-07-25T07:16:19;28.70;74.60
10903;DHT22;5504;47.312;11.060;2022-07-25T07:18:45;29.30;76.80
10903;DHT22;5504;47.312;11.060;2022-07-25T07:21:10;29.00;72.30
10903;DHT22;5504;47.312;11.060;2022-07-25T07:23:36;29.40;73.20
10903;DHT22;5504;47.312;11.060;2022-07-25T07:26:02;29.90;75.30
10903;DHT22;5504;47.312;11.060;2022-07-25T07:28:27;30.20;71.00
10903;DHT22;5504;47.312;11.060;2022-07-25T07:30:53;29.70;72.00
10903;DHT22;5504;47.312;11.060;2022-07-25T07:33:19;29.80;74.30
10903;DHT22;5504;47.312;11.060;2022-07-25T07:35:44;29.10;73.70
10903;DHT22;5504;47.312;11.060;2022-07-25T07:38:10;28.50;71.50
10903;DHT22;5504;47.312;11.060;2022-07-25T07:40:36;28.80;71.40
10903;DHT22;5504;47.312;11.060;2022-07-25T07:43:02;28.90;70.30
10903;DHT22;5504;47.312;11.060;2022-07-25T07:45:29;28.80;70.20
10903;DHT22;5504;47.312;11.060;2022-07-25T07:47:55;29.20;77.00
10903;DHT22;5504;47.312;11.060;2022-07-25T07:50:23;29.40;71.20
10903;DHT22;5504;47.312;11.060;2022-07-25T07:52:50;29.70;70.30
10903;DHT22;5504;47.312;11.060;2022-07-25T07:55:16;29.90;73.80
10903;DHT22;5504;47.312;11.060;2022-07-25T07:58:00;30.00;68.60
10903;DHT22;5504;47.312;11.060;2022-07-25T08:00:28;30.60;66.30
10903;DHT22;5504;47.312;11.060;2022-07-25T08:02:55;30.00;67.30
10903;DHT22;5504;47.312;11.060;2022-07-25T08:05:31;30.50;71.90
10903;DHT22;5504;47.312;11.060;2022-07-25T08:07:58;30.80;66.00
10903;DHT22;5504;47.312;11.060;2022-07-25T08:10:28;31.20;68.40
10903;DHT22;5504;47.312;11.060;2022-07-25T08:12:55;31.30;69.30
10903;DHT22;5504;47.312;11.060;2022-07-25T08:15:22;31.10;62.90
10903;DHT22;5504;47.312;11.060;2022-07-25T08:17:49;30.60;65.20
10903;DHT22;5504;47.312;11.060;2022-07-25T08:20:16;30.90;68.60
10903;DHT22;5504;47.312;11.060;2022-07-25T08:22:45;31.30;62.00
10903;DHT22;5504;47.312;11.060;2022-07-25T08:25:14;31.10;62.60
10903;DHT22;5504;47.312;11.060;2022-07-25T08:27:40;30.90;68.20
10903;DHT22;5504;47.312;11.060;2022-07-25T08:30:07;31.50;62.10
10903;DHT22;5504;47.312;11.060;2022-07-25T08:32:33;31.70;63.00
10903;DHT22;5504;47.312;11.060;2022-07-25T08:35:00;32.10;63.00
10903;DHT22;5504;47.312;11.060;2022-07-25T08:37:28;31.90;61.70
10903;DHT22;5504;47.312;11.060;2022-07-25T08:39:54;32.20;61.80
10903;DHT22;5504;47.312;11.060;2022-07-25T08:42:20;31.60;59.00
10903;DHT22;5504;47.312;11.060;2022-07-25T08:44:58;31.70;64.30
10903;DHT22;5504;47.312;11.060;2022-07-25T08:47:24;32.80;63.00
10903;DHT22;5504;47.312;11.060;2022-07-25T08:49:50;32.70;60.50
10903;DHT22;5504;47.312;11.060;2022-07-25T08:52:17;32.30;58.10
10903;DHT22;5504;47.312;11.060;2022-07-25T08:54:45;32.40;57.10
10903;DHT22;5504;47.312;11.060;2022-07-25T08:57:12;32.50;63.80
10903;DHT22;5504;47.312;11.060;2022-07-25T08:59:37;32.20;59.40
10903;DHT22;5504;47.312;11.060;2022-07-25T09:02:03;32.30;57.00
10903;DHT22;5504;47.312;11.060;2022-07-25T09:04:35;33.00;64.30
10903;DHT22;5504;47.312;11.060;2022-07-25T09:07:01;34.00;62.90
10903;DHT22;5504;47.312;11.060;2022-07-25T09:09:36;34.50;58.90
10903;DHT22;5504;47.312;11.060;2022-07-25T09:12:06;34.80;60.40
10903;DHT22;5504;47.312;11.060;2022-07-25T09:14:44;35.10;59.40
10903;DHT22;5504;47.312;11.060;2022-07-25T09:17:09;35.80;59.20
10903;DHT22;5504;47.312;11.060;2022-07-25T09:19:35;36.30;57.20
10903;DHT22;5504;47.312;11.060;2022-07-25T09:22:06;36.50;55.60
10903;DHT22;5504;47.312;11.060;2022-07-25T09:24:33;36.50;55.60
10903;DHT22;5504;47.312;11.060;2022-07-25T09:27:07;36.60;55.00
10903;DHT22;5504;47.312;11.060;2022-07-25T09:29:34;36.50;55.80
10903;DHT22;5504;47.312;11.060;2022-07-25T09:32:01;36.60;54.80
10903;DHT22;5504;47.312;11.060;2022-07-25T09:34:33;36.10;52.50
10903;DHT22;5504;47.312;11.060;2022-07-25T09:37:04;35.90;56.20
10903;DHT22;5504;47.312;11.060;2022-07-25T09:41:59;35.40;53.40
10903;DHT22;5504;47.312;11.060;2022-07-25T09:44:25;36.20;55.90
10903;DHT22;5504;47.312;11.060;2022-07-25T09:46:55;36.60;54.00
10903;DHT22;5504;47.312;11.060;2022-07-25T09:49:24;35.30;52.80
10903;DHT22;5504;47.312;11.060;2022-07-25T09:51:50;35.40;55.80
10903;DHT22;5504;47.312;11.060;2022-07-25T09:54:16;36.20;54.80
10903;DHT22;5504;47.312;11.060;2022-07-25T09:56:42;36.30;52.60
10903;DHT22;5504;47.312;11.060;2022-07-25T09:59:08;36.00;55.80
10903;DHT22;5504;47.312;11.060;2022-07-25T10:01:38;36.90;54.70
10903;DHT22;5504;47.312;11.060;2022-07-25T10:04:31;37.50;53.10
10903;DHT22;5504;47.312;11.060;2022-07-25T10:07:07;36.70;54.80
10903;DHT22;5504;47.312;11.060;2022-07-25T10:10:00;36.70;54.50
10903;DHT22;5504;47.312;11.060;2022-07-25T10:12:26;37.50;54.20
10903;DHT22;5504;47.312;11.060;2022-07-25T10:15:10;37.60;54.00
10903;DHT22;5504;47.312;11.060;2022-07-25T10:17:38;38.10;54.40
10903;DHT22;5504;47.312;11.060;2022-07-25T10:20:09;38.50;52.10
10903;DHT22;5504;47.312;11.060;2022-07-25T10:22:42;38.30;52.10
10903;DHT22;5504;47.312;11.060;2022-07-25T10:25:15;37.90;52.40
10903;DHT22;5504;47.312;11.060;2022-07-25T10:27:45;38.10;52.30
10903;DHT22;5504;47.312;11.060;2022-07-25T10:30:27;37.60;51.30
10903;DHT22;5504;47.312;11.060;2022-07-25T10:33:12;37.00;50.70
10903;DHT22;5504;47.312;11.060;2022-07-25T10:35:38;37.10;51.60
10903;DHT22;5504;47.312;11.060;2022-07-25T10:38:05;37.40;53.80
10903;DHT22;5504;47.312;11.060;2022-07-25T10:40:37;36.80;50.10
10903;DHT22;5504;47.312;11.060;2022-07-25T10:43:21;36.00;48.40
10903;DHT22;5504;47.312;11.060;2022-07-25T10:45:52;36.40;53.50
10903;DHT22;5504;47.312;11.060;2022-07-25T10:48:29;37.20;52.70
10903;DHT22;5504;47.312;11.060;2022-07-25T10:51:00;37.40;53.20
10903;DHT22;5504;47.312;11.060;2022-07-25T10:53:45;37.70;52.90
10903;DHT22;5504;47.312;11.060;2022-07-25T10:56:26;38.00;54.80
10903;DHT22;5504;47.312;11.060;2022-07-25T10:58:57;38.20;49.00
10903;DHT22;5504;47.312;11.060;2022-07-25T11:01:30;38.30;49.00
10903;DHT22;5504;47.312;11.060;2022-07-25T11:04:02;38.60;51.40
10903;DHT22;5504;47.312;11.060;2022-07-25T11:06:39;38.40;51.80
10903;DHT22;5504;47.312;11.060;2022-07-25T11:09:21;38.20;45.60
10903;DHT22;5504;47.312;11.060;2022-07-25T11:11:50;37.60;51.30
10903;DHT22;5504;47.312;11.060;2022-07-25T11:14:16;37.60;49.00
10903;DHT22;5504;47.312;11.060;2022-07-25T11:16:44;37.90;50.00
10903;DHT22;5504;47.312;11.060;2022-07-25T11:21:53;38.40;44.70
10903;DHT22;5504;47.312;11.060;2022-07-25T11:24:20;38.40;49.90
10903;DHT22;5504;47.312;11.060;2022-07-25T11:26:50;39.10;49.70
10903;DHT22;5504;47.312;11.060;2022-07-25T11:29:23;39.60;50.80
10903;DHT22;5504;47.312;11.060;2022-07-25T11:32:01;39.30;44.80
10903;DHT22;5504;47.312;11.060;2022-07-25T11:34:29;38.30;44.50
10903;DHT22;5504;47.312;11.060;2022-07-25T11:36:57;37.80;45.70
10903;DHT22;5504;47.312;11.060;2022-07-25T11:39:28;36.70;44.10
10903;DHT22;5504;47.312;11.060;2022-07-25T11:42:04;37.00;46.70
10903;DHT22;5504;47.312;11.060;2022-07-25T11:44:46;36.80;45.10
10903;DHT22;5504;47.312;11.060;2022-07-25T11:47:26;37.30;45.30
10903;DHT22;5504;47.312;11.060;2022-07-25T11:49:53;37.80;45.70
10903;DHT22;5504;47.312;11.060;2022-07-25T11:52:30;37.80;41.70
10903;DHT22;5504;47.312;11.060;2022-07-25T11:57:29;38.90;44.80
10903;DHT22;5504;47.312;11.060;2022-07-25T11:59:57;39.30;46.10
10903;DHT22;5504;47.312;11.060;2022-07-25T12:02:26;40.00;45.10
10903;DHT22;5504;47.312;11.060;2022-07-25T12:04:54;40.20;40.80
10903;DHT22;5504;47.312;11.060;2022-07-25T12:07:20;40.10;43.70
10903;DHT22;5504;47.312;11.060;2022-07-25T12:09:55;39.20;40.00
10903;DHT22;5504;47.312;11.060;2022-07-25T12:12:21;39.80;43.80
10903;DHT22;5504;47.312;11.060;2022-07-25T12:14:47;40.00;45.90
10903;DHT22;5504;47.312;11.060;2022-07-25T12:17:13;40.40;43.80
10903;DHT22;5504;47.312;11.060;2022-07-25T12:19:39;40.10;39.80
10903;DHT22;5504;47.312;11.060;2022-07-25T12:22:05;40.10;41.10
10903;DHT22;5504;47.312;11.060;2022-07-25T12:24:31;39.50;40.10
10903;DHT22;5504;47.312;11.060;2022-07-25T12:26:56;39.10;39.90
10903;DHT22;5504;47.312;11.060;2022-07-25T12:29:22;38.60;38.00
10903;DHT22;5504;47.312;11.060;2022-07-25T12:31:48;38.50;40.60
10903;DHT22;5504;47.312;11.060;2022-07-25T12:34:13;38.20;38.20
10903;DHT22;5504;47.312;11.060;2022-07-25T12:36:39;39.10;40.10
10903;DHT22;5504;47.312;11.060;2022-07-25T12:39:09;39.50;39.00
10903;DHT22;5504;47.312;11.060;2022-07-25T12:41:34;39.70;39.50
10903;DHT22;5504;47.312;11.060;2022-07-25T12:44:00;39.60;38.80
10903;DHT22;5504;47.312;11.060;2022-07-25T12:46:28;39.60;41.70
10903;DHT22;5504;47.312;11.060;2022-07-25T12:48:54;39.90;39.90
10903;DHT22;5504;47.312;11.060;2022-07-25T12:51:20;40.20;38.00
10903;DHT22;5504;47.312;11.060;2022-07-25T12:53:46;40.00;40.30
10903;DHT22;5504;47.312;11.060;2022-07-25T12:56:12;40.20;41.40
10903;DHT22;5504;47.312;11.060;2022-07-25T12:58:39;40.30;40.50
10903;DHT22;5504;47.312;11.060;2022-07-25T13:01:04;40.20;42.10
10903;DHT22;5504;47.312;11.060;2022-07-25T13:03:30;40.40;41.40
10903;DHT22;5504;47.312;11.060;2022-07-25T13:05:56;40.30;40.40
10903;DHT22;5504;47.312;11.060;2022-07-25T13:08:21;40.40;41.60
10903;DHT22;5504;47.312;11.060;2022-07-25T13:10:47;40.50;41.10
10903;DHT22;5504;47.312;11.060;2022-07-25T13:13:13;39.70;36.00
10903;DHT22;5504;47.312;11.060;2022-07-25T13:15:39;39.60;39.80
10903;DHT22;5504;47.312;11.060;2022-07-25T13:18:05;39.10;37.50
10903;DHT22;5504;47.312;11.060;2022-07-25T13:20:30;38.70;40.50
10903;DHT22;5504;47.312;11.060;2022-07-25T13:22:59;39.00;39.50
10903;DHT22;5504;47.312;11.060;2022-07-25T13:25:25;39.00;39.10
10903;DHT22;5504;47.312;11.060;2022-07-25T13:27:51;38.90;40.80
10903;DHT22;5504;47.312;11.060;2022-07-25T13:30:16;39.00;38.60
10903;DHT22;5504;47.312;11.060;2022-07-25T13:32:42;38.80;39.50
10903;DHT22;5504;47.312;11.060;2022-07-25T13:35:08;38.60;38.50
10903;DHT22;5504;47.312;11.060;2022-07-25T13:37:34;38.50;41.20
10903;DHT22;5504;47.312;11.060;2022-07-25T13:40:00;38.40;38.50
10903;DHT22;5504;47.312;11.060;2022-07-25T13:42:26;38.10;39.00
10903;DHT22;5504;47.312;11.060;2022-07-25T13:44:52;38.40;39.40
10903;DHT22;5504;47.312;11.060;2022-07-25T13:47:17;38.60;39.40
10903;DHT22;5504;47.312;11.060;2022-07-25T13:49:43;38.80;37.40
10903;DHT22;5504;47.312;11.060;2022-07-25T13:52:09;39.10;38.70
10903;DHT22;5504;47.312;11.060;2022-07-25T13:54:34;39.60;40.80
10903;DHT22;5504;47.312;11.060;2022-07-25T13:57:01;39.60;39.70
10903;DHT22;5504;47.312;11.060;2022-07-25T13:59:27;39.70;41.20
10903;DHT22;5504;47.312;11.060;2022-07-25T14:01:53;38.80;38.90
10903;DHT22;5504;47.312;11.060;2022-07-25T14:04:19;37.50;35.10
10903;DHT22;5504;47.312;11.060;2022-07-25T14:06:45;36.50;34.80
10903;DHT22;5504;47.312;11.060;2022-07-25T14:09:16;36.50;36.10
10903;DHT22;5504;47.312;11.060;2022-07-25T14:11:42;37.20;41.60
10903;DHT22;5504;47.312;11.060;2022-07-25T14:14:07;37.90;41.50
10903;DHT22;5504;47.312;11.060;2022-07-25T14:16:33;38.50;40.90
10903;DHT22;5504;47.312;11.060;2022-07-25T14:19:00;38.60;41.00
10903;DHT22;5504;47.312;11.060;2022-07-25T14:21:25;38.60;41.20
10903;DHT22;5504;47.312;11.060;2022-07-25T14:23:51;38.70;38.60
10903;DHT22;5504;47.312;11.060;2022-07-25T14:26:18;38.70;38.80
10903;DHT22;5504;47.312;11.060;2022-07-25T14:28:43;38.80;39.90
10903;DHT22;5504;47.312;11.060;2022-07-25T14:31:09;38.50;39.00
10903;DHT22;5504;47.312;11.060;2022-07-25T14:33:36;38.30;38.80
10903;DHT22;5504;47.312;11.060;2022-07-25T14:36:05;38.40;42.60
10903;DHT22;5504;47.312;11.060;2022-07-25T14:38:32;38.00;38.40
10903;DHT22;5504;47.312;11.060;2022-07-25T14:40:57;37.60;37.50
10903;DHT22;5504;47.312;11.060;2022-07-25T14:43:23;37.10;38.30
10903;DHT22;5504;47.312;11.060;2022-07-25T14:45:49;37.50;40.70
10903;DHT22;5504;47.312;11.060;2022-07-25T14:48:14;37.50;38.30
10903;DHT22;5504;47.312;11.060;2022-07-25T14:50:40;37.80;42.10
10903;DHT22;5504;47.312;11.060;2022-07-25T14:53:06;37.60;38.90
10903;DHT22;5504;47.312;11.060;2022-07-25T14:55:31;36.80;38.60
10903;DHT22;5504;47.312;11.060;2022-07-25T14:57:57;36.80;39.00
10903;DHT22;5504;47.312;11.060;2022-07-25T15:00:27;37.20;42.80
10903;DHT22;5504;47.312;11.060;2022-07-25T15:02:53;37.00;39.60
10903;DHT22;5504;47.312;11.060;2022-07-25T15:05:19;36.80;40.10
10903;DHT22;5504;47.312;11.060;2022-07-25T15:07:44;36.50;41.00
10903;DHT22;5504;47.312;11.060;2022-07-25T15:10:10;36.40;40.00
10903;DHT22;5504;47.312;11.060;2022-07-25T15:12:36;36.10;41.10
10903;DHT22;5504;47.312;11.060;2022-07-25T15:15:02;36.10;41.40
10903;DHT22;5504;47.312;11.060;2022-07-25T15:17:28;36.10;41.70
10903;DHT22;5504;47.312;11.060;2022-07-25T15:19:53;36.00;40.40
10903;DHT22;5504;47.312;11.060;2022-07-25T15:22:19;35.60;41.30
10903;DHT22;5504;47.312;11.060;2022-07-25T15:24:45;35.40;41.30
10903;DHT22;5504;47.312;11.060;2022-07-25T15:27:11;35.40;44.60
10903;DHT22;5504;47.312;11.060;2022-07-25T15:29:36;35.50;43.10
10903;DHT22;5504;47.312;11.060;2022-07-25T15:32:02;35.40;44.40
10903;DHT22;5504;47.312;11.060;2022-07-25T15:34:29;35.30;42.00
10903;DHT22;5504;47.312;11.060;2022-07-25T15:36:56;35.10;41.70